Waltz, Michigan
Current Conditions -  °F | °C
As of 2:53 AM on Tuesday 27 Jan 2015 (Local Time) from KDTW Reporting Station
Scattered Clouds Scattered Clouds  
Wind Chill: 13°   Ceiling: Unl
Heat Index: 13°   Visibility: 10mi
Dew Point:   Wind: 0mph
Humidity: 84%   Direction: NA
Pressure: 30"   Gusts: NA
Location:  42.1166°N, 83.4023°W
Report Text: KDTW 270753Z 00000KT 10SM FEW025 SCT140 SCT230 M11/M13 A3000 RMK AO2 SLP168 T11061128
Loading
Personal Weather Stations






























Interactive Weather Map New forecast layout! Learn more

10-Day Weather Forecast

Advertisements
Track Severe Weather on mobile